Terminal Aerodrome Forecast
Issued by NWS Cleveland, OH

Home | Current Version | Previous Version | Graphics & Text | Print | Product List | Glossary On
Versions: 1 2 3 4 5 6 7 8 9 10 11 12 13 14 15 16 17 18 19 20 21 22
899
FTUS41 KCLE 221014 AAA
TAFYNG
TAF AMD
KYNG 221014Z 2210/2306 24004KT P6SM VCSH SCT035 OVC080
      TEMPO 2211/2214 5SM -SHRA OVC035
     FM221400 17003KT P6SM VCSH OVC015
      TEMPO 2214/2218 5SM -SHRA
     FM221800 19006KT P6SM OVC025
     FM222200 19006KT P6SM OVC035
     FM230200 17006KT 5SM BR OVC015=

USA.gov is the U.S. government's official web portal to all federal, state and local government web resources and services.